Time;durP1;ratioP1;P1;durP2;ratioP2;P2;SDS_P1;SDS_P2;PMS_P1;PMS_P2;Temp;Humidity;BMP_temperature;BMP_pressure;BME280_temperature;BME280_humidity;BME280_pressure;Samples;Min_cycle;Max_cycle;Signal;HPM_P1;HPM_P2
2023/10/26 00:01:34;;;;;;;0.00;0.00;;;;;;;;;;5007480;28;20230;-87
2023/10/26 00:04:00;;;;;;;0.80;0.80;;;;;;;;;;5013725;28;20176;-87
2023/10/26 00:06:25;;;;;;;0.00;0.00;;;;;;;;;;4997224;28;20176;-88
2023/10/26 00:08:50;;;;;;;0.00;0.00;;;;;;;;;;5009067;28;20179;-87
2023/10/26 00:11:19;;;;;;;0.57;0.57;;;;;;;;;;5018038;28;20204;-87
2023/10/26 00:13:44;;;;;;;0.13;0.13;;;;;;;;;;4995540;28;20191;-89
2023/10/26 00:16:09;;;;;;;0.00;0.00;;;;;;;;;;5002169;28;20168;-87
2023/10/26 00:18:35;;;;;;;0.00;0.00;;;;;;;;;;4999447;28;20260;-89
2023/10/26 00:21:00;;;;;;;0.00;0.00;;;;;;;;;;5007586;28;20266;-88
2023/10/26 00:23:26;;;;;;;0.30;0.30;;;;;;;;;;5024631;28;20426;-89
2023/10/26 00:25:51;;;;;;;0.00;0.00;;;;;;;;;;5007729;28;20188;-87
2023/10/26 00:28:16;;;;;;;0.10;0.10;;;;;;;;;;5026137;28;20267;-89
2023/10/26 00:30:42;;;;;;;0.10;0.10;;;;;;;;;;5022755;28;20204;-88
2023/10/26 00:33:07;;;;;;;0.00;0.00;;;;;;;;;;5001543;28;20168;-88
2023/10/26 00:35:32;;;;;;;0.00;0.00;;;;;;;;;;5032039;28;20262;-88
2023/10/26 00:37:58;;;;;;;0.00;0.00;;;;;;;;;;5017894;28;20171;-89
2023/10/26 00:40:23;;;;;;;0.00;0.00;;;;;;;;;;5016930;28;20173;-88
2023/10/26 00:42:48;;;;;;;0.00;0.00;;;;;;;;;;4995217;28;20208;-87
2023/10/26 00:45:13;;;;;;;0.00;0.00;;;;;;;;;;4995557;28;20181;-89
2023/10/26 00:47:39;;;;;;;0.00;0.00;;;;;;;;;;5005624;28;20186;-88
2023/10/26 00:50:05;;;;;;;0.00;0.00;;;;;;;;;;5010071;28;20733;-88
2023/10/26 00:52:30;;;;;;;0.00;0.00;;;;;;;;;;5020761;28;20207;-89
2023/10/26 00:54:56;;;;;;;0.00;0.00;;;;;;;;;;4999390;28;20183;-88
2023/10/26 00:57:22;;;;;;;0.00;0.00;;;;;;;;;;5032661;28;20168;-88
2023/10/26 00:59:48;;;;;;;0.00;0.00;;;;;;;;;;5032603;28;20187;-88
2023/10/26 01:02:14;;;;;;;0.00;0.00;;;;;;;;;;5017730;28;20200;-88
2023/10/26 01:04:40;;;;;;;0.00;0.00;;;;;;;;;;5005065;28;20185;-88
2023/10/26 01:07:05;;;;;;;0.30;0.30;;;;;;;;;;5032527;28;20607;-88
2023/10/26 01:09:33;;;;;;;0.00;0.00;;;;;;;;;;5015690;28;20184;-88
2023/10/26 01:11:58;;;;;;;0.00;0.00;;;;;;;;;;5010831;28;20250;-88
2023/10/26 01:14:24;;;;;;;1.00;0.90;;;;;;;;;;4995354;28;20196;-87
2023/10/26 01:16:49;;;;;;;0.00;0.00;;;;;;;;;;4995556;28;20186;-87
2023/10/26 01:19:14;;;;;;;0.00;0.00;;;;;;;;;;5009841;28;20188;-88
2023/10/26 01:21:49;;;;;;;0.00;0.00;;;;;;;;;;5015975;28;20207;-89
2023/10/26 01:24:18;;;;;;;0.03;0.03;;;;;;;;;;5017376;28;20176;-87
2023/10/26 01:26:45;;;;;;;0.00;0.00;;;;;;;;;;5003166;28;20185;-88
2023/10/26 01:29:11;;;;;;;0.00;0.00;;;;;;;;;;5003138;28;20245;-89
2023/10/26 01:31:36;;;;;;;0.00;0.00;;;;;;;;;;4996453;28;20662;-88
2023/10/26 01:34:07;;;;;;;0.00;0.00;;;;;;;;;;5014490;28;20176;-87
2023/10/26 01:36:35;;;;;;;0.00;0.00;;;;;;;;;;5014386;28;20180;-87
2023/10/26 01:39:00;;;;;;;0.60;0.60;;;;;;;;;;5001598;28;20180;-88
2023/10/26 01:41:29;;;;;;;0.40;0.40;;;;;;;;;;5011114;28;20210;-88
2023/10/26 01:44:01;;;;;;;0.00;0.00;;;;;;;;;;5002235;28;20183;-88
2023/10/26 01:46:26;;;;;;;0.00;0.00;;;;;;;;;;4994956;28;20188;-87
2023/10/26 01:48:51;;;;;;;0.00;0.00;;;;;;;;;;5017437;28;20186;-88
2023/10/26 01:51:16;;;;;;;0.00;0.00;;;;;;;;;;5027776;28;20717;-87
2023/10/26 01:53:42;;;;;;;0.00;0.00;;;;;;;;;;4998227;28;20610;-88
2023/10/26 01:56:07;;;;;;;0.00;0.00;;;;;;;;;;5000841;28;20191;-88
2023/10/26 01:58:35;;;;;;;0.00;0.00;;;;;;;;;;5017809;28;20251;-89
2023/10/26 02:01:01;;;;;;;0.00;0.00;;;;;;;;;;4999959;28;20234;-88
2023/10/26 02:03:26;;;;;;;0.00;0.00;;;;;;;;;;5008295;28;20644;-88
2023/10/26 02:05:51;;;;;;;0.00;0.00;;;;;;;;;;5028087;28;20198;-88
2023/10/26 02:08:16;;;;;;;0.00;0.00;;;;;;;;;;5028242;28;20178;-88
2023/10/26 02:10:44;;;;;;;0.00;0.00;;;;;;;;;;5019753;28;20200;-88
2023/10/26 02:13:12;;;;;;;0.20;0.20;;;;;;;;;;5010117;28;20176;-87
2023/10/26 02:15:38;;;;;;;0.00;0.00;;;;;;;;;;5000455;28;20180;-88
2023/10/26 02:18:03;;;;;;;0.00;0.00;;;;;;;;;;5020509;28;20183;-88
2023/10/26 02:20:28;;;;;;;0.00;0.00;;;;;;;;;;5000756;28;20193;-86
2023/10/26 02:22:53;;;;;;;0.10;0.10;;;;;;;;;;5000311;28;20697;-88
2023/10/26 02:25:20;;;;;;;0.00;0.00;;;;;;;;;;4997841;28;20179;-88
2023/10/26 02:27:45;;;;;;;0.00;0.00;;;;;;;;;;5008968;28;20194;-87
2023/10/26 02:30:13;;;;;;;0.00;0.00;;;;;;;;;;5003579;28;20212;-88
2023/10/26 02:32:42;;;;;;;0.00;0.00;;;;;;;;;;5015265;28;20663;-88
2023/10/26 02:35:07;;;;;;;0.13;0.13;;;;;;;;;;4997679;28;20255;-89
2023/10/26 02:37:38;;;;;;;0.00;0.00;;;;;;;;;;5023670;28;20195;-88
2023/10/26 02:40:05;;;;;;;0.37;0.37;;;;;;;;;;5006063;28;20272;-88
2023/10/26 02:42:30;;;;;;;0.00;0.00;;;;;;;;;;4997361;28;20200;-88
2023/10/26 02:44:59;;;;;;;0.00;0.00;;;;;;;;;;5023527;28;20176;-90
2023/10/26 02:47:24;;;;;;;0.00;0.00;;;;;;;;;;5005784;28;20183;-88
2023/10/26 02:49:52;;;;;;;0.00;0.00;;;;;;;;;;5001085;28;20183;-88
2023/10/26 02:52:17;;;;;;;0.00;0.00;;;;;;;;;;5001821;28;20706;-88
2023/10/26 02:54:42;;;;;;;0.00;0.00;;;;;;;;;;5018611;28;20251;-88
2023/10/26 02:57:11;;;;;;;0.00;0.00;;;;;;;;;;5015320;28;20655;-89
2023/10/26 02:59:39;;;;;;;0.00;0.00;;;;;;;;;;5033051;28;20213;-89
2023/10/26 03:02:10;;;;;;;0.20;0.20;;;;;;;;;;5003724;28;20234;-88
2023/10/26 03:04:39;;;;;;;0.60;0.60;;;;;;;;;;5014999;28;20702;-88
2023/10/26 03:07:04;;;;;;;4.23;4.03;;;;;;;;;;5017563;28;20669;-88
2023/10/26 03:09:29;;;;;;;0.00;0.00;;;;;;;;;;5017011;28;20291;-88
2023/10/26 03:11:55;;;;;;;0.50;0.50;;;;;;;;;;5016882;28;20302;-88
2023/10/26 03:14:20;;;;;;;1.10;1.10;;;;;;;;;;5026784;28;20255;-88
2023/10/26 03:16:45;;;;;;;0.00;0.00;;;;;;;;;;5016369;28;20197;-89
2023/10/26 03:19:10;;;;;;;0.00;0.00;;;;;;;;;;5002976;28;20172;-88
2023/10/26 03:21:36;;;;;;;9.90;4.80;;;;;;;;;;4998652;28;20368;-89
2023/10/26 03:24:01;;;;;;;3.93;3.63;;;;;;;;;;5034315;28;20175;-88
2023/10/26 03:26:26;;;;;;;0.73;0.73;;;;;;;;;;5008629;28;20184;-88
2023/10/26 03:28:52;;;;;;;1.93;1.83;;;;;;;;;;5016832;28;20179;-88
2023/10/26 03:31:17;;;;;;;4.03;3.03;;;;;;;;;;5016502;28;20764;-88
2023/10/26 03:33:42;;;;;;;2.43;1.37;;;;;;;;;;5023563;28;20172;-88
2023/10/26 03:36:17;;;;;;;1.77;1.67;;;;;;;;;;5005245;28;20180;-88
2023/10/26 03:38:43;;;;;;;2.90;1.97;;;;;;;;;;4999986;28;20176;-88
2023/10/26 03:41:08;;;;;;;3.63;3.33;;;;;;;;;;5006643;28;20199;-88
2023/10/26 03:43:34;;;;;;;2.80;2.60;;;;;;;;;;5012657;28;20176;-89
2023/10/26 03:45:59;;;;;;;2.57;2.47;;;;;;;;;;5014285;28;20172;-87
2023/10/26 03:48:24;;;;;;;1.83;1.73;;;;;;;;;;5004432;28;20196;-88
2023/10/26 03:50:52;;;;;;;2.73;2.53;;;;;;;;;;4996773;28;20212;-88
2023/10/26 03:53:20;;;;;;;3.07;2.17;;;;;;;;;;5000490;28;20187;-87
2023/10/26 03:55:46;;;;;;;1.83;1.73;;;;;;;;;;5008086;28;20654;-88
2023/10/26 03:58:15;;;;;;;3.80;3.50;;;;;;;;;;5002799;28;20186;-87
2023/10/26 04:00:40;;;;;;;2.27;2.17;;;;;;;;;;5015130;28;20195;-88
2023/10/26 04:03:05;;;;;;;3.50;1.93;;;;;;;;;;5016505;28;20214;-87
2023/10/26 04:05:30;;;;;;;1.27;1.23;;;;;;;;;;5018196;28;20172;-88
2023/10/26 04:07:58;;;;;;;2.07;1.97;;;;;;;;;;4999233;28;20246;-88
2023/10/26 04:10:26;;;;;;;2.90;2.70;;;;;;;;;;4997641;28;20184;-87
2023/10/26 04:12:51;;;;;;;1.67;1.57;;;;;;;;;;5006767;28;20204;-88
2023/10/26 04:15:17;;;;;;;0.63;0.63;;;;;;;;;;5016915;28;20183;-88
2023/10/26 04:17:42;;;;;;;0.10;0.10;;;;;;;;;;5043822;28;20188;-88
2023/10/26 04:20:07;;;;;;;1.17;1.13;;;;;;;;;;5037173;28;20195;-89
2023/10/26 04:22:35;;;;;;;1.87;0.93;;;;;;;;;;5021299;28;20189;-89
2023/10/26 04:25:00;;;;;;;1.47;1.43;;;;;;;;;;5027541;28;20181;-87
2023/10/26 04:27:25;;;;;;;2.73;2.53;;;;;;;;;;4998959;28;20206;-88
2023/10/26 04:29:50;;;;;;;6.00;4.70;;;;;;;;;;5017212;28;20183;-87
2023/10/26 04:32:16;;;;;;;1.13;1.13;;;;;;;;;;5018514;28;20282;-87
2023/10/26 04:34:44;;;;;;;16.80;4.50;;;;;;;;;;5014538;28;20266;-87
2023/10/26 04:37:09;;;;;;;4.37;3.93;;;;;;;;;;4998035;28;20175;-87
2023/10/26 04:39:37;;;;;;;3.30;3.00;;;;;;;;;;5005063;28;20176;-88
2023/10/26 04:42:04;;;;;;;2.90;2.70;;;;;;;;;;5018754;28;20217;-88
2023/10/26 04:44:30;;;;;;;12.70;5.47;;;;;;;;;;5016293;28;20190;-88
2023/10/26 04:46:55;;;;;;;8.40;5.17;;;;;;;;;;5033528;28;20206;-87
2023/10/26 04:49:20;;;;;;;3.93;3.57;;;;;;;;;;5033248;28;20273;-88
2023/10/26 04:51:45;;;;;;;7.10;6.47;;;;;;;;;;5032686;28;20215;-85
2023/10/26 04:54:31;;;;;;;3.47;3.27;;;;;;;;;;5032807;28;20172;-87
2023/10/26 04:56:56;;;;;;;5.03;4.63;;;;;;;;;;5020918;28;20179;-87
2023/10/26 04:59:24;;;;;;;3.27;2.97;;;;;;;;;;5011587;28;20184;-88
2023/10/26 05:01:52;;;;;;;4.43;3.50;;;;;;;;;;5003607;28;20201;-87
2023/10/26 05:04:19;;;;;;;5.67;5.20;;;;;;;;;;5028008;28;20202;-87
2023/10/26 05:06:44;;;;;;;6.03;5.47;;;;;;;;;;5012667;28;20562;-87
2023/10/26 05:09:10;;;;;;;7.77;3.27;;;;;;;;;;5027281;28;20266;-87
2023/10/26 05:11:35;;;;;;;2.87;2.07;;;;;;;;;;5032199;28;20203;-88
2023/10/26 05:14:04;;;;;;;1.17;1.07;;;;;;;;;;5032365;28;20676;-87
2023/10/26 05:16:29;;;;;;;4.50;3.87;;;;;;;;;;4998344;28;20179;-89
2023/10/26 05:18:54;;;;;;;2.57;2.30;;;;;;;;;;5010993;28;20559;-87
2023/10/26 05:21:26;;;;;;;2.77;2.27;;;;;;;;;;5002173;28;20199;-88
2023/10/26 05:23:51;;;;;;;0.97;0.97;;;;;;;;;;5032229;28;20180;-87
2023/10/26 05:26:18;;;;;;;2.67;2.47;;;;;;;;;;5014382;28;20194;-87
2023/10/26 05:28:44;;;;;;;4.00;3.57;;;;;;;;;;4998192;28;20563;-88
2023/10/26 05:31:09;;;;;;;1.50;1.40;;;;;;;;;;5032076;28;20199;-87
2023/10/26 05:33:34;;;;;;;4.63;4.23;;;;;;;;;;5013143;28;20174;-88
2023/10/26 05:35:59;;;;;;;1.23;0.87;;;;;;;;;;5012474;28;20618;-87
2023/10/26 05:38:24;;;;;;;6.00;5.47;;;;;;;;;;5011123;28;20183;-88
2023/10/26 05:40:56;;;;;;;1.47;1.37;;;;;;;;;;5002921;28;20204;-88
2023/10/26 05:43:21;;;;;;;3.07;2.87;;;;;;;;;;5002799;28;20532;-87
2023/10/26 05:45:46;;;;;;;4.50;3.53;;;;;;;;;;5014049;28;20191;-88
2023/10/26 05:48:11;;;;;;;2.30;2.20;;;;;;;;;;5000125;28;20231;-88
2023/10/26 05:50:41;;;;;;;1.20;1.17;;;;;;;;;;5012145;28;20198;-88
2023/10/26 05:53:06;;;;;;;4.97;3.40;;;;;;;;;;5035212;23;20604;-85
2023/10/26 05:55:32;;;;;;;2.60;2.40;;;;;;;;;;5013496;28;20263;-85
2023/10/26 05:57:57;;;;;;;2.53;1.47;;;;;;;;;;5038374;28;20175;-85
2023/10/26 06:00:22;;;;;;;3.70;3.30;;;;;;;;;;5036545;28;20190;-85
2023/10/26 06:02:47;;;;;;;2.10;1.90;;;;;;;;;;5032279;28;20199;-85
2023/10/26 06:05:12;;;;;;;6.70;3.37;;;;;;;;;;5034341;28;20646;-85
2023/10/26 06:07:37;;;;;;;3.33;3.13;;;;;;;;;;5031562;28;20181;-85
2023/10/26 06:10:05;;;;;;;1.00;1.00;;;;;;;;;;5030206;28;20172;-85
2023/10/26 06:12:30;;;;;;;3.40;3.13;;;;;;;;;;5034106;28;20207;-85
2023/10/26 06:14:56;;;;;;;1.03;1.03;;;;;;;;;;5034120;28;20164;-84
2023/10/26 06:17:21;;;;;;;2.57;2.37;;;;;;;;;;5034449;28;20171;-85
2023/10/26 06:19:46;;;;;;;1.50;1.37;;;;;;;;;;5033993;28;20176;-85
2023/10/26 06:22:11;;;;;;;2.10;1.83;;;;;;;;;;5034509;28;20196;-84
2023/10/26 06:24:36;;;;;;;2.73;2.53;;;;;;;;;;5031290;28;20218;-85
2023/10/26 06:27:03;;;;;;;2.20;2.03;;;;;;;;;;5025389;28;20179;-85
2023/10/26 06:29:28;;;;;;;1.90;1.80;;;;;;;;;;5027013;28;20183;-86
2023/10/26 06:31:53;;;;;;;1.67;1.50;;;;;;;;;;5031140;28;20698;-86
2023/10/26 06:34:18;;;;;;;2.43;2.23;;;;;;;;;;5024105;28;20180;-85
2023/10/26 06:36:43;;;;;;;1.90;1.53;;;;;;;;;;5022110;28;20176;-85
2023/10/26 06:39:09;;;;;;;3.17;2.87;;;;;;;;;;5031187;28;20194;-85
2023/10/26 06:41:34;;;;;;;1.10;1.10;;;;;;;;;;5006716;28;20207;-86
2023/10/26 06:43:59;;;;;;;1.93;1.83;;;;;;;;;;5031347;28;20184;-85
2023/10/26 06:46:25;;;;;;;1.40;1.13;;;;;;;;;;5031807;28;20176;-85
2023/10/26 06:48:50;;;;;;;1.73;1.63;;;;;;;;;;5032187;28;20175;-85
2023/10/26 06:51:15;;;;;;;2.30;1.70;;;;;;;;;;5034652;28;20535;-84
2023/10/26 06:53:40;;;;;;;0.67;0.67;;;;;;;;;;5034706;28;20263;-85
2023/10/26 06:56:09;;;;;;;2.43;2.33;;;;;;;;;;5034888;28;20180;-84
2023/10/26 06:58:39;;;;;;;9.33;2.80;;;;;;;;;;5027074;28;20298;-84
2023/10/26 07:01:06;;;;;;;2.67;1.47;;;;;;;;;;5017378;28;20207;-85
2023/10/26 07:03:31;;;;;;;0.37;0.37;;;;;;;;;;5016607;28;20180;-85
2023/10/26 07:05:59;;;;;;;0.80;0.80;;;;;;;;;;5035004;28;20168;-85
2023/10/26 07:08:25;;;;;;;1.90;1.80;;;;;;;;;;5021923;28;20729;-86
2023/10/26 07:10:50;;;;;;;0.30;0.30;;;;;;;;;;5015221;28;20222;-86
2023/10/26 07:13:16;;;;;;;2.53;2.33;;;;;;;;;;5024283;28;20303;-85
2023/10/26 07:15:42;;;;;;;0.30;0.30;;;;;;;;;;5023678;28;20172;-85
2023/10/26 07:18:07;;;;;;;0.90;0.90;;;;;;;;;;5031247;28;20167;-85
2023/10/26 07:20:32;;;;;;;2.97;2.00;;;;;;;;;;5027121;28;20199;-85
2023/10/26 07:22:57;;;;;;;1.00;1.00;;;;;;;;;;5030951;28;20734;-85
2023/10/26 07:25:23;;;;;;;2.07;1.87;;;;;;;;;;5034153;28;20168;-85
2023/10/26 07:27:48;;;;;;;0.80;0.80;;;;;;;;;;5026290;28;20176;-85
2023/10/26 07:30:13;;;;;;;3.47;3.17;;;;;;;;;;5010288;28;20193;-85
2023/10/26 07:32:38;;;;;;;3.07;2.87;;;;;;;;;;5014632;28;20215;-85
2023/10/26 07:35:04;;;;;;;1.77;1.67;;;;;;;;;;5016759;28;20191;-85
2023/10/26 07:37:29;;;;;;;1.47;1.43;;;;;;;;;;5016324;28;20186;-85
2023/10/26 07:39:54;;;;;;;0.00;0.00;;;;;;;;;;5034604;28;20183;-85
2023/10/26 07:42:19;;;;;;;2.13;1.93;;;;;;;;;;5031243;28;20204;-85
2023/10/26 07:44:45;;;;;;;2.53;2.33;;;;;;;;;;5034180;28;20183;-86
2023/10/26 07:47:12;;;;;;;0.50;0.50;;;;;;;;;;5034194;28;20179;-86
2023/10/26 07:49:40;;;;;;;0.50;0.50;;;;;;;;;;5033998;28;20172;-85
2023/10/26 07:52:06;;;;;;;1.70;1.60;;;;;;;;;;5006814;28;20336;-85
2023/10/26 07:54:31;;;;;;;1.27;1.17;;;;;;;;;;5016812;28;20256;-86
2023/10/26 07:56:57;;;;;;;1.17;1.17;;;;;;;;;;5029073;28;20725;-86
2023/10/26 07:59:22;;;;;;;1.87;1.70;;;;;;;;;;5025045;28;20164;-86
2023/10/26 08:01:47;;;;;;;1.10;1.03;;;;;;;;;;5014708;28;20662;-86
2023/10/26 08:04:13;;;;;;;1.30;1.20;;;;;;;;;;5017153;28;20238;-86
2023/10/26 08:06:38;;;;;;;0.57;0.57;;;;;;;;;;5025390;28;20623;-86
2023/10/26 08:09:03;;;;;;;2.07;1.97;;;;;;;;;;5027503;28;20182;-86
2023/10/26 08:11:28;;;;;;;1.20;1.10;;;;;;;;;;5031181;28;20216;-86
2023/10/26 08:13:54;;;;;;;0.57;0.57;;;;;;;;;;5032964;28;20172;-86
2023/10/26 08:16:19;;;;;;;0.93;0.83;;;;;;;;;;5007442;28;20183;-86
2023/10/26 08:18:44;;;;;;;0.20;0.20;;;;;;;;;;5033121;28;20241;-86
2023/10/26 08:21:13;;;;;;;0.77;0.77;;;;;;;;;;5015515;28;20198;-86
2023/10/26 08:23:38;;;;;;;0.40;0.40;;;;;;;;;;5015011;28;20237;-86
2023/10/26 08:26:07;;;;;;;0.00;0.00;;;;;;;;;;5015322;28;20175;-85
2023/10/26 08:28:32;;;;;;;0.77;0.77;;;;;;;;;;5015263;28;20183;-86
2023/10/26 08:30:57;;;;;;;0.00;0.00;;;;;;;;;;5032817;28;20333;-87
2023/10/26 08:33:23;;;;;;;0.00;0.00;;;;;;;;;;5032608;28;20329;-85
2023/10/26 08:35:49;;;;;;;0.00;0.00;;;;;;;;;;5032928;28;20172;-86
2023/10/26 08:38:15;;;;;;;0.00;0.00;;;;;;;;;;5015226;28;20179;-86
2023/10/26 08:40:55;;;;;;;1.00;0.87;;;;;;;;;;5032725;28;20585;-86
2023/10/26 08:43:23;;;;;;;0.43;0.43;;;;;;;;;;5014566;28;20205;-86
2023/10/26 08:45:50;;;;;;;0.00;0.00;;;;;;;;;;5030094;28;20168;-87
2023/10/26 08:48:17;;;;;;;0.00;0.00;;;;;;;;;;5028007;28;20179;-86
2023/10/26 08:50:43;;;;;;;0.00;0.00;;;;;;;;;;5032630;28;20175;-86
2023/10/26 08:53:08;;;;;;;1.17;1.17;;;;;;;;;;5032696;28;20207;-86
2023/10/26 08:55:35;;;;;;;0.37;0.37;;;;;;;;;;5014853;28;20182;-86
2023/10/26 08:58:02;;;;;;;0.40;0.40;;;;;;;;;;5032653;28;20680;-86
2023/10/26 09:00:31;;;;;;;0.00;0.00;;;;;;;;;;5032594;28;20172;-86
2023/10/26 09:02:56;;;;;;;0.17;0.17;;;;;;;;;;5014501;28;20751;-86
2023/10/26 09:05:22;;;;;;;0.57;0.57;;;;;;;;;;5032346;28;20176;-86
2023/10/26 09:07:47;;;;;;;0.00;0.00;;;;;;;;;;5032537;28;20168;-86
2023/10/26 09:10:13;;;;;;;0.30;0.30;;;;;;;;;;5032536;28;20176;-86
2023/10/26 09:12:38;;;;;;;0.00;0.00;;;;;;;;;;5014000;28;20208;-86
2023/10/26 09:15:08;;;;;;;2.80;0.93;;;;;;;;;;5031971;28;20258;-85
2023/10/26 09:17:33;;;;;;;0.47;0.43;;;;;;;;;;5031921;28;20175;-86
2023/10/26 09:20:14;;;;;;;1.30;1.00;;;;;;;;;;5032136;28;20247;-86
2023/10/26 09:22:40;;;;;;;0.20;0.20;;;;;;;;;;5031864;28;20548;-86
2023/10/26 09:25:05;;;;;;;0.40;0.40;;;;;;;;;;5014359;28;20191;-86
2023/10/26 09:27:31;;;;;;;0.63;0.60;;;;;;;;;;5014348;28;20188;-86
2023/10/26 09:29:56;;;;;;;0.87;0.87;;;;;;;;;;5037015;28;20183;-85
2023/10/26 09:32:30;;;;;;;1.30;1.00;;;;;;;;;;5044497;28;20207;-86
2023/10/26 09:34:55;;;;;;;7.80;5.30;;;;;;;;;;5034954;28;20642;-85
2023/10/26 09:37:20;;;;;;;3.93;3.63;;;;;;;;;;5033880;28;20187;-86
2023/10/26 09:39:47;;;;;;;1.20;1.10;;;;;;;;;;5015216;28;20180;-86
2023/10/26 09:42:12;;;;;;;0.30;0.30;;;;;;;;;;5032410;28;20195;-86
2023/10/26 09:44:37;;;;;;;0.63;0.63;;;;;;;;;;5031919;28;20653;-85
2023/10/26 09:47:03;;;;;;;1.83;1.17;;;;;;;;;;5031892;28;20176;-86
2023/10/26 09:49:28;;;;;;;4.83;1.87;;;;;;;;;;5014257;28;20684;-86
2023/10/26 09:51:54;;;;;;;3.80;2.80;;;;;;;;;;5032145;28;20211;-85
2023/10/26 09:54:21;;;;;;;4.30;3.03;;;;;;;;;;5031937;28;20179;-85
2023/10/26 09:56:51;;;;;;;0.87;0.87;;;;;;;;;;5032577;28;20183;-86
2023/10/26 09:59:16;;;;;;;0.33;0.33;;;;;;;;;;5031719;28;20669;-86
2023/10/26 10:01:42;;;;;;;0.00;0.00;;;;;;;;;;5031921;28;20203;-86
2023/10/26 10:04:08;;;;;;;0.63;0.63;;;;;;;;;;5031457;28;20564;-86
2023/10/26 10:06:44;;;;;;;0.57;0.57;;;;;;;;;;5031847;28;20176;-86
2023/10/26 10:09:12;;;;;;;0.93;0.60;;;;;;;;;;5031779;28;20175;-86
2023/10/26 10:11:38;;;;;;;0.00;0.00;;;;;;;;;;5031170;28;20195;-86
2023/10/26 10:14:04;;;;;;;0.50;0.27;;;;;;;;;;5031193;28;20207;-86
2023/10/26 10:16:35;;;;;;;0.00;0.00;;;;;;;;;;5031339;28;20689;-86
2023/10/26 10:19:15;;;;;;;0.13;0.13;;;;;;;;;;5031477;28;20172;-86
2023/10/26 10:21:40;;;;;;;0.83;0.40;;;;;;;;;;5031283;28;20199;-86
2023/10/26 10:24:05;;;;;;;0.00;0.00;;;;;;;;;;5032552;28;20198;-86
2023/10/26 10:26:50;;;;;;;0.00;0.00;;;;;;;;;;5017511;28;20267;-86
2023/10/26 10:29:18;;;;;;;0.00;0.00;;;;;;;;;;5035447;28;20340;-87
2023/10/26 10:31:43;;;;;;;0.00;0.00;;;;;;;;;;5035102;28;20212;-87
2023/10/26 10:34:09;;;;;;;0.00;0.00;;;;;;;;;;5035155;28;20248;-86
2023/10/26 10:36:53;;;;;;;0.00;0.00;;;;;;;;;;5035229;28;20172;-87
2023/10/26 10:39:22;;;;;;;0.00;0.00;;;;;;;;;;5017402;28;20191;-86
2023/10/26 10:41:48;;;;;;;0.00;0.00;;;;;;;;;;5014604;28;20214;-86
2023/10/26 10:44:13;;;;;;;0.20;0.20;;;;;;;;;;5011770;28;20192;-86
2023/10/26 10:46:38;;;;;;;0.00;0.00;;;;;;;;;;5034906;28;20183;-86
2023/10/26 10:49:08;;;;;;;0.00;0.00;;;;;;;;;;5034827;28;20206;-87
2023/10/26 10:51:35;;;;;;;0.00;0.00;;;;;;;;;;5016864;28;20223;-87
2023/10/26 10:54:01;;;;;;;0.00;0.00;;;;;;;;;;5016429;28;20630;-86
2023/10/26 10:56:26;;;;;;;0.00;0.00;;;;;;;;;;5034544;28;20260;-87
2023/10/26 10:58:52;;;;;;;0.00;0.00;;;;;;;;;;5034816;28;20694;-86
2023/10/26 11:01:19;;;;;;;0.00;0.00;;;;;;;;;;5034741;28;20287;-86
2023/10/26 11:03:45;;;;;;;0.00;0.00;;;;;;;;;;5034429;28;20206;-86
2023/10/26 11:06:13;;;;;;;0.10;0.10;;;;;;;;;;5034875;28;20650;-86
2023/10/26 11:08:39;;;;;;;0.30;0.30;;;;;;;;;;5034801;28;20180;-86
2023/10/26 11:11:04;;;;;;;0.00;0.00;;;;;;;;;;5016886;28;20213;-86
2023/10/26 11:13:29;;;;;;;2.03;0.37;;;;;;;;;;5034201;28;20190;-87
2023/10/26 11:15:54;;;;;;;0.00;0.00;;;;;;;;;;5034826;28;20234;-86
2023/10/26 11:18:19;;;;;;;0.00;0.00;;;;;;;;;;5016883;28;20658;-87
2023/10/26 11:20:48;;;;;;;1.10;1.10;;;;;;;;;;5034451;28;20171;-86
2023/10/26 11:23:14;;;;;;;0.00;0.00;;;;;;;;;;5034195;28;20192;-87
2023/10/26 11:25:40;;;;;;;1.07;0.70;;;;;;;;;;5037140;28;20174;-86
2023/10/26 11:28:05;;;;;;;0.00;0.00;;;;;;;;;;5035812;28;20167;-86
2023/10/26 11:30:44;;;;;;;0.20;0.20;;;;;;;;;;5016761;28;20272;-86
2023/10/26 11:33:09;;;;;;;0.10;0.10;;;;;;;;;;5016429;28;20203;-87
2023/10/26 11:35:41;;;;;;;0.00;0.00;;;;;;;;;;5034364;28;20653;-87
2023/10/26 11:38:06;;;;;;;0.20;0.20;;;;;;;;;;5034394;28;20187;-86
2023/10/26 11:40:34;;;;;;;0.07;0.07;;;;;;;;;;5016655;28;20191;-86
2023/10/26 11:43:00;;;;;;;0.13;0.13;;;;;;;;;;5008532;28;20698;-88
2023/10/26 11:45:26;;;;;;;0.10;0.10;;;;;;;;;;5016253;28;20677;-86
2023/10/26 11:47:51;;;;;;;0.00;0.00;;;;;;;;;;5016399;28;20179;-86
2023/10/26 11:50:18;;;;;;;0.00;0.00;;;;;;;;;;5034145;28;20176;-86
2023/10/26 11:52:43;;;;;;;0.00;0.00;;;;;;;;;;5051479;22;20235;-87
2023/10/26 11:55:09;;;;;;;0.00;0.00;;;;;;;;;;5016426;28;20418;-88
2023/10/26 11:57:34;;;;;;;0.00;0.00;;;;;;;;;;5034375;28;20178;-86
2023/10/26 11:59:59;;;;;;;0.00;0.00;;;;;;;;;;5034311;28;20545;-89
2023/10/26 12:02:28;;;;;;;0.00;0.00;;;;;;;;;;5012546;28;20215;-88
2023/10/26 12:04:53;;;;;;;0.00;0.00;;;;;;;;;;4996397;28;20187;-89
2023/10/26 12:07:18;;;;;;;0.00;0.00;;;;;;;;;;5013842;28;20165;-89
2023/10/26 12:09:43;;;;;;;0.00;0.00;;;;;;;;;;4994493;28;20205;-90
2023/10/26 12:12:09;;;;;;;0.00;0.00;;;;;;;;;;4997043;28;20675;-89
2023/10/26 12:14:34;;;;;;;0.00;0.00;;;;;;;;;;5019654;28;20175;-89
2023/10/26 12:16:59;;;;;;;0.00;0.00;;;;;;;;;;4996810;28;20199;-88
2023/10/26 12:19:24;;;;;;;0.00;0.00;;;;;;;;;;4997515;28;20226;-90
2023/10/26 12:21:49;;;;;;;0.00;0.00;;;;;;;;;;4994818;28;20181;-88
2023/10/26 12:24:15;;;;;;;0.00;0.00;;;;;;;;;;4995707;28;20208;-89
2023/10/26 12:26:40;;;;;;;0.00;0.00;;;;;;;;;;4995933;28;20319;-89
2023/10/26 12:29:05;;;;;;;0.00;0.00;;;;;;;;;;5013917;28;20196;-89
2023/10/26 12:31:31;;;;;;;0.00;0.00;;;;;;;;;;5020635;28;20203;-89
2023/10/26 12:33:56;;;;;;;0.20;0.20;;;;;;;;;;4995651;28;20196;-89
2023/10/26 12:36:21;;;;;;;0.00;0.00;;;;;;;;;;5013542;28;20638;-90
2023/10/26 12:38:46;;;;;;;0.10;0.10;;;;;;;;;;4995886;28;20187;-89
2023/10/26 12:41:11;;;;;;;0.00;0.00;;;;;;;;;;4996131;28;20184;-89
2023/10/26 12:43:36;;;;;;;0.40;0.40;;;;;;;;;;5011602;28;20234;-89
2023/10/26 12:46:02;;;;;;;0.20;0.20;;;;;;;;;;4995225;28;20179;-89
2023/10/26 12:48:27;;;;;;;0.43;0.43;;;;;;;;;;4996094;28;20238;-89
2023/10/26 12:50:52;;;;;;;0.00;0.00;;;;;;;;;;4995506;28;20189;-89
2023/10/26 12:53:17;;;;;;;0.57;0.57;;;;;;;;;;4995306;28;20220;-89
2023/10/26 12:55:42;;;;;;;0.43;0.43;;;;;;;;;;4995484;28;20192;-90
2023/10/26 12:58:07;;;;;;;0.10;0.10;;;;;;;;;;4995843;28;20165;-90
2023/10/26 13:00:33;;;;;;;0.40;0.40;;;;;;;;;;5013266;28;20660;-89
2023/10/26 13:02:58;;;;;;;0.10;0.10;;;;;;;;;;4995039;28;20203;-89
2023/10/26 13:05:23;;;;;;;0.53;0.53;;;;;;;;;;5019571;28;20199;-89
2023/10/26 13:07:48;;;;;;;0.00;0.00;;;;;;;;;;5017726;28;20180;-90
2023/10/26 13:10:14;;;;;;;0.20;0.20;;;;;;;;;;4995375;28;20183;-89
2023/10/26 13:12:39;;;;;;;0.17;0.17;;;;;;;;;;5017749;28;20618;-89
2023/10/26 13:15:04;;;;;;;0.23;0.23;;;;;;;;;;4995299;28;20172;-89
2023/10/26 13:17:30;;;;;;;0.00;0.00;;;;;;;;;;4999481;28;20172;-89
2023/10/26 13:19:55;;;;;;;0.20;0.20;;;;;;;;;;5012769;28;20256;-89
2023/10/26 13:22:20;;;;;;;0.53;0.53;;;;;;;;;;5012888;28;20250;-89
2023/10/26 13:24:45;;;;;;;0.30;0.30;;;;;;;;;;4995123;28;20230;-88
2023/10/26 13:27:10;;;;;;;0.40;0.30;;;;;;;;;;4999147;28;20173;-87
2023/10/26 13:29:35;;;;;;;0.20;0.20;;;;;;;;;;4993558;28;20332;-89
2023/10/26 13:32:01;;;;;;;0.40;0.40;;;;;;;;;;4994549;28;20211;-88
2023/10/26 13:34:29;;;;;;;0.67;0.67;;;;;;;;;;4994272;28;20204;-88
2023/10/26 13:37:02;;;;;;;0.40;0.40;;;;;;;;;;4987382;28;20188;-88
2023/10/26 13:39:27;;;;;;;0.47;0.27;;;;;;;;;;4995054;28;20246;-89
2023/10/26 13:41:55;;;;;;;0.77;0.77;;;;;;;;;;4994860;28;20658;-88
2023/10/26 13:44:24;;;;;;;1.43;1.37;;;;;;;;;;5011745;28;20203;-89
2023/10/26 13:46:49;;;;;;;0.83;0.83;;;;;;;;;;4994779;28;20687;-89
2023/10/26 13:49:14;;;;;;;0.40;0.40;;;;;;;;;;5012224;28;20176;-92
2023/10/26 13:51:39;;;;;;;0.60;0.40;;;;;;;;;;4986820;28;20287;-88
2023/10/26 13:54:05;;;;;;;0.77;0.73;;;;;;;;;;4994563;28;20208;-89
2023/10/26 13:56:30;;;;;;;0.63;0.63;;;;;;;;;;5012080;28;20168;-89
2023/10/26 13:58:55;;;;;;;0.97;0.97;;;;;;;;;;5013343;28;20169;-88
2023/10/26 14:01:20;;;;;;;1.33;1.23;;;;;;;;;;5016242;28;20688;-88
2023/10/26 14:03:45;;;;;;;1.20;1.10;;;;;;;;;;4998022;28;20204;-88
2023/10/26 14:06:12;;;;;;;0.90;0.90;;;;;;;;;;5016392;28;20180;-88
2023/10/26 14:08:38;;;;;;;0.97;0.97;;;;;;;;;;4998633;28;20216;-89
2023/10/26 14:11:03;;;;;;;0.90;0.90;;;;;;;;;;4998412;28;20219;-88
2023/10/26 14:13:28;;;;;;;0.77;0.77;;;;;;;;;;4998416;28;20204;-88
2023/10/26 14:15:53;;;;;;;0.50;0.50;;;;;;;;;;4998605;28;20177;-88
2023/10/26 14:18:19;;;;;;;0.40;0.10;;;;;;;;;;5016117;28;20168;-89
2023/10/26 14:20:44;;;;;;;0.23;0.23;;;;;;;;;;5015868;28;20602;-88
2023/10/26 14:23:09;;;;;;;0.57;0.57;;;;;;;;;;5015669;28;20193;-89
2023/10/26 14:25:34;;;;;;;0.27;0.27;;;;;;;;;;5015948;28;20258;-88
2023/10/26 14:28:00;;;;;;;0.23;0.23;;;;;;;;;;5022076;28;20190;-88
2023/10/26 14:30:26;;;;;;;0.23;0.23;;;;;;;;;;4998303;28;20177;-88
2023/10/26 14:32:51;;;;;;;0.10;0.10;;;;;;;;;;5015380;28;20207;-88
2023/10/26 14:35:16;;;;;;;0.00;0.00;;;;;;;;;;4998233;28;20176;-89
2023/10/26 14:37:47;;;;;;;0.00;0.00;;;;;;;;;;4998313;28;20187;-88